sensor_id;sensor_type;location;lat;lon;timestamp;P1;durP1;ratioP1;P2;durP2;ratioP2
21705;SDS011;11014;53.076;18.208;2023-01-15T00:01:04;7.22;;;4.45;;
21705;SDS011;11014;53.076;18.208;2023-01-15T00:03:48;11.75;;;4.63;;
21705;SDS011;11014;53.076;18.208;2023-01-15T00:06:17;9.38;;;4.18;;
21705;SDS011;11014;53.076;18.208;2023-01-15T00:08:47;8.32;;;4.18;;
21705;SDS011;11014;53.076;18.208;2023-01-15T00:11:16;8.68;;;4.00;;
21705;SDS011;11014;53.076;18.208;2023-01-15T00:13:46;7.68;;;3.78;;
21705;SDS011;11014;53.076;18.208;2023-01-15T00:16:17;9.32;;;3.80;;
21705;SDS011;11014;53.076;18.208;2023-01-15T00:18:52;9.07;;;4.10;;
21705;SDS011;11014;53.076;18.208;2023-01-15T00:28:21;11.98;;;4.30;;
21705;SDS011;11014;53.076;18.208;2023-01-15T00:30:50;7.97;;;3.95;;
21705;SDS011;11014;53.076;18.208;2023-01-15T00:33:18;8.75;;;3.92;;
21705;SDS011;11014;53.076;18.208;2023-01-15T00:35:48;8.10;;;3.47;;
21705;SDS011;11014;53.076;18.208;2023-01-15T00:38:17;12.77;;;4.22;;
21705;SDS011;11014;53.076;18.208;2023-01-15T00:40:45;9.35;;;3.70;;
21705;SDS011;11014;53.076;18.208;2023-01-15T00:43:20;7.57;;;3.22;;
21705;SDS011;11014;53.076;18.208;2023-01-15T00:45:54;9.27;;;3.42;;
21705;SDS011;11014;53.076;18.208;2023-01-15T00:48:23;9.95;;;3.72;;
21705;SDS011;11014;53.076;18.208;2023-01-15T00:50:52;6.35;;;2.83;;
21705;SDS011;11014;53.076;18.208;2023-01-15T00:53:20;7.65;;;3.80;;
21705;SDS011;11014;53.076;18.208;2023-01-15T00:55:49;8.00;;;3.03;;
21705;SDS011;11014;53.076;18.208;2023-01-15T00:58:17;6.18;;;2.67;;
21705;SDS011;11014;53.076;18.208;2023-01-15T01:00:46;8.15;;;3.33;;
21705;SDS011;11014;53.076;18.208;2023-01-15T01:03:14;7.53;;;3.20;;
21705;SDS011;11014;53.076;18.208;2023-01-15T01:05:44;9.38;;;3.50;;
21705;SDS011;11014;53.076;18.208;2023-01-15T01:08:14;8.52;;;3.15;;
21705;SDS011;11014;53.076;18.208;2023-01-15T01:10:43;6.20;;;2.78;;
21705;SDS011;11014;53.076;18.208;2023-01-15T01:13:13;7.45;;;2.88;;
21705;SDS011;11014;53.076;18.208;2023-01-15T01:15:42;7.00;;;3.30;;
21705;SDS011;11014;53.076;18.208;2023-01-15T01:18:11;8.40;;;3.10;;
21705;SDS011;11014;53.076;18.208;2023-01-15T01:20:40;8.27;;;3.40;;
21705;SDS011;11014;53.076;18.208;2023-01-15T01:23:09;6.63;;;2.92;;
21705;SDS011;11014;53.076;18.208;2023-01-15T01:25:38;6.80;;;2.92;;
21705;SDS011;11014;53.076;18.208;2023-01-15T01:28:06;6.88;;;2.92;;
21705;SDS011;11014;53.076;18.208;2023-01-15T01:30:36;8.57;;;3.50;;
21705;SDS011;11014;53.076;18.208;2023-01-15T01:33:05;8.63;;;3.15;;
21705;SDS011;11014;53.076;18.208;2023-01-15T01:35:34;5.05;;;2.35;;
21705;SDS011;11014;53.076;18.208;2023-01-15T01:38:02;10.60;;;3.20;;
21705;SDS011;11014;53.076;18.208;2023-01-15T01:40:31;9.05;;;3.53;;
21705;SDS011;11014;53.076;18.208;2023-01-15T01:42:59;8.07;;;3.00;;
21705;SDS011;11014;53.076;18.208;2023-01-15T01:45:28;6.18;;;3.05;;
21705;SDS011;11014;53.076;18.208;2023-01-15T01:48:00;5.95;;;2.90;;
21705;SDS011;11014;53.076;18.208;2023-01-15T01:50:34;12.95;;;2.80;;
21705;SDS011;11014;53.076;18.208;2023-01-15T01:53:07;8.52;;;2.88;;
21705;SDS011;11014;53.076;18.208;2023-01-15T01:55:41;5.60;;;2.70;;
21705;SDS011;11014;53.076;18.208;2023-01-15T01:58:09;4.25;;;2.15;;
21705;SDS011;11014;53.076;18.208;2023-01-15T02:00:41;6.45;;;2.40;;
21705;SDS011;11014;53.076;18.208;2023-01-15T02:03:16;4.95;;;2.60;;
21705;SDS011;11014;53.076;18.208;2023-01-15T02:05:53;5.50;;;2.88;;
21705;SDS011;11014;53.076;18.208;2023-01-15T02:08:27;8.07;;;2.70;;
21705;SDS011;11014;53.076;18.208;2023-01-15T02:10:55;5.85;;;2.72;;
21705;SDS011;11014;53.076;18.208;2023-01-15T02:13:39;8.68;;;2.90;;
21705;SDS011;11014;53.076;18.208;2023-01-15T02:16:38;8.05;;;2.50;;
21705;SDS011;11014;53.076;18.208;2023-01-15T02:24:54;6.40;;;3.05;;
21705;SDS011;11014;53.076;18.208;2023-01-15T02:27:25;5.70;;;2.53;;
21705;SDS011;11014;53.076;18.208;2023-01-15T02:32:58;7.75;;;2.97;;
21705;SDS011;11014;53.076;18.208;2023-01-15T02:35:51;5.32;;;2.55;;
21705;SDS011;11014;53.076;18.208;2023-01-15T02:38:32;6.07;;;2.45;;
21705;SDS011;11014;53.076;18.208;2023-01-15T02:41:05;5.20;;;2.22;;
21705;SDS011;11014;53.076;18.208;2023-01-15T02:43:45;8.05;;;2.70;;
21705;SDS011;11014;53.076;18.208;2023-01-15T02:46:24;7.97;;;2.50;;
21705;SDS011;11014;53.076;18.208;2023-01-15T02:48:58;6.50;;;2.63;;
21705;SDS011;11014;53.076;18.208;2023-01-15T02:51:36;6.35;;;2.30;;
21705;SDS011;11014;53.076;18.208;2023-01-15T02:54:10;4.97;;;2.47;;
21705;SDS011;11014;53.076;18.208;2023-01-15T02:56:45;5.80;;;2.50;;
21705;SDS011;11014;53.076;18.208;2023-01-15T02:59:21;3.55;;;2.08;;
21705;SDS011;11014;53.076;18.208;2023-01-15T03:01:57;8.30;;;2.60;;
21705;SDS011;11014;53.076;18.208;2023-01-15T03:07:21;10.75;;;2.92;;
21705;SDS011;11014;53.076;18.208;2023-01-15T03:09:55;6.07;;;2.67;;
21705;SDS011;11014;53.076;18.208;2023-01-15T03:15:07;7.82;;;2.53;;
21705;SDS011;11014;53.076;18.208;2023-01-15T03:18:09;4.22;;;2.17;;
21705;SDS011;11014;53.076;18.208;2023-01-15T03:20:45;6.00;;;2.67;;
21705;SDS011;11014;53.076;18.208;2023-01-15T03:23:19;5.50;;;2.40;;
21705;SDS011;11014;53.076;18.208;2023-01-15T03:25:54;6.88;;;2.70;;
21705;SDS011;11014;53.076;18.208;2023-01-15T03:28:24;6.53;;;2.45;;
21705;SDS011;11014;53.076;18.208;2023-01-15T03:30:57;6.95;;;2.35;;
21705;SDS011;11014;53.076;18.208;2023-01-15T03:33:26;5.57;;;2.17;;
21705;SDS011;11014;53.076;18.208;2023-01-15T03:35:58;3.85;;;2.20;;
21705;SDS011;11014;53.076;18.208;2023-01-15T03:38:37;5.05;;;2.50;;
21705;SDS011;11014;53.076;18.208;2023-01-15T03:43:54;6.50;;;2.20;;
21705;SDS011;11014;53.076;18.208;2023-01-15T03:51:37;5.57;;;2.38;;
21705;SDS011;11014;53.076;18.208;2023-01-15T03:54:13;4.88;;;2.15;;
21705;SDS011;11014;53.076;18.208;2023-01-15T03:56:52;3.22;;;1.95;;
21705;SDS011;11014;53.076;18.208;2023-01-15T03:59:32;3.03;;;1.55;;
21705;SDS011;11014;53.076;18.208;2023-01-15T04:02:08;3.95;;;2.22;;
21705;SDS011;11014;53.076;18.208;2023-01-15T04:04:40;4.43;;;1.77;;
21705;SDS011;11014;53.076;18.208;2023-01-15T04:07:11;2.90;;;1.98;;
21705;SDS011;11014;53.076;18.208;2023-01-15T04:09:40;3.33;;;2.10;;
21705;SDS011;11014;53.076;18.208;2023-01-15T04:12:11;3.80;;;1.77;;
21705;SDS011;11014;53.076;18.208;2023-01-15T04:14:44;3.15;;;1.90;;
21705;SDS011;11014;53.076;18.208;2023-01-15T04:17:17;3.75;;;2.00;;
21705;SDS011;11014;53.076;18.208;2023-01-15T04:19:45;5.50;;;2.15;;
21705;SDS011;11014;53.076;18.208;2023-01-15T04:22:14;3.95;;;1.98;;
21705;SDS011;11014;53.076;18.208;2023-01-15T04:24:43;3.42;;;1.90;;
21705;SDS011;11014;53.076;18.208;2023-01-15T04:27:11;4.03;;;2.00;;
21705;SDS011;11014;53.076;18.208;2023-01-15T04:29:40;2.72;;;1.65;;
21705;SDS011;11014;53.076;18.208;2023-01-15T04:32:08;3.33;;;2.00;;
21705;SDS011;11014;53.076;18.208;2023-01-15T04:34:37;2.40;;;1.80;;
21705;SDS011;11014;53.076;18.208;2023-01-15T04:37:05;2.88;;;1.90;;
21705;SDS011;11014;53.076;18.208;2023-01-15T04:39:34;3.83;;;2.00;;
21705;SDS011;11014;53.076;18.208;2023-01-15T04:42:02;3.00;;;1.90;;
21705;SDS011;11014;53.076;18.208;2023-01-15T04:44:49;3.38;;;1.95;;
21705;SDS011;11014;53.076;18.208;2023-01-15T04:47:17;4.05;;;1.65;;
21705;SDS011;11014;53.076;18.208;2023-01-15T04:49:46;3.08;;;1.95;;
21705;SDS011;11014;53.076;18.208;2023-01-15T04:52:15;3.90;;;1.92;;
21705;SDS011;11014;53.076;18.208;2023-01-15T04:54:44;3.58;;;2.10;;
21705;SDS011;11014;53.076;18.208;2023-01-15T04:57:12;3.38;;;2.00;;
21705;SDS011;11014;53.076;18.208;2023-01-15T04:59:41;3.35;;;1.98;;
21705;SDS011;11014;53.076;18.208;2023-01-15T05:02:27;3.47;;;1.90;;
21705;SDS011;11014;53.076;18.208;2023-01-15T05:05:22;3.22;;;2.13;;
21705;SDS011;11014;53.076;18.208;2023-01-15T05:07:50;2.20;;;1.80;;
21705;SDS011;11014;53.076;18.208;2023-01-15T05:10:19;3.92;;;2.10;;
21705;SDS011;11014;53.076;18.208;2023-01-15T05:12:48;3.90;;;2.00;;
21705;SDS011;11014;53.076;18.208;2023-01-15T05:15:16;3.63;;;2.00;;
21705;SDS011;11014;53.076;18.208;2023-01-15T05:17:45;2.38;;;1.88;;
21705;SDS011;11014;53.076;18.208;2023-01-15T05:20:14;5.70;;;2.05;;
21705;SDS011;11014;53.076;18.208;2023-01-15T05:22:42;3.72;;;2.00;;
21705;SDS011;11014;53.076;18.208;2023-01-15T05:25:11;3.17;;;2.13;;
21705;SDS011;11014;53.076;18.208;2023-01-15T05:27:40;3.50;;;1.90;;
21705;SDS011;11014;53.076;18.208;2023-01-15T05:30:10;4.13;;;2.08;;
21705;SDS011;11014;53.076;18.208;2023-01-15T05:32:41;3.40;;;1.80;;
21705;SDS011;11014;53.076;18.208;2023-01-15T05:35:10;2.63;;;1.80;;
21705;SDS011;11014;53.076;18.208;2023-01-15T05:37:38;3.70;;;2.00;;
21705;SDS011;11014;53.076;18.208;2023-01-15T05:40:07;3.05;;;2.00;;
21705;SDS011;11014;53.076;18.208;2023-01-15T05:42:36;4.15;;;2.20;;
21705;SDS011;11014;53.076;18.208;2023-01-15T05:45:05;5.47;;;2.20;;
21705;SDS011;11014;53.076;18.208;2023-01-15T05:47:34;3.63;;;2.08;;
21705;SDS011;11014;53.076;18.208;2023-01-15T05:50:03;4.35;;;2.20;;
21705;SDS011;11014;53.076;18.208;2023-01-15T05:52:31;4.78;;;1.92;;
21705;SDS011;11014;53.076;18.208;2023-01-15T05:55:00;3.75;;;2.17;;
21705;SDS011;11014;53.076;18.208;2023-01-15T05:57:30;2.10;;;1.60;;
21705;SDS011;11014;53.076;18.208;2023-01-15T06:00:00;2.78;;;2.15;;
21705;SDS011;11014;53.076;18.208;2023-01-15T06:02:28;4.20;;;1.85;;
21705;SDS011;11014;53.076;18.208;2023-01-15T06:04:57;3.70;;;2.20;;
21705;SDS011;11014;53.076;18.208;2023-01-15T06:07:25;4.05;;;2.28;;
21705;SDS011;11014;53.076;18.208;2023-01-15T06:09:54;2.33;;;1.50;;
21705;SDS011;11014;53.076;18.208;2023-01-15T06:12:23;3.65;;;2.03;;
21705;SDS011;11014;53.076;18.208;2023-01-15T06:14:52;3.70;;;2.45;;
21705;SDS011;11014;53.076;18.208;2023-01-15T06:17:20;3.80;;;2.42;;
21705;SDS011;11014;53.076;18.208;2023-01-15T06:19:49;3.45;;;2.05;;
21705;SDS011;11014;53.076;18.208;2023-01-15T06:22:17;3.17;;;2.00;;
21705;SDS011;11014;53.076;18.208;2023-01-15T06:24:46;4.10;;;2.42;;
21705;SDS011;11014;53.076;18.208;2023-01-15T06:27:14;6.10;;;2.55;;
21705;SDS011;11014;53.076;18.208;2023-01-15T06:29:43;5.47;;;2.17;;
21705;SDS011;11014;53.076;18.208;2023-01-15T06:32:11;3.38;;;2.35;;
21705;SDS011;11014;53.076;18.208;2023-01-15T06:34:40;5.75;;;2.40;;
21705;SDS011;11014;53.076;18.208;2023-01-15T06:37:11;3.10;;;1.83;;
21705;SDS011;11014;53.076;18.208;2023-01-15T06:39:39;4.15;;;2.72;;
21705;SDS011;11014;53.076;18.208;2023-01-15T06:42:08;6.38;;;2.60;;
21705;SDS011;11014;53.076;18.208;2023-01-15T06:44:55;2.78;;;1.98;;
21705;SDS011;11014;53.076;18.208;2023-01-15T06:47:42;3.47;;;2.58;;
21705;SDS011;11014;53.076;18.208;2023-01-15T06:53:04;3.53;;;2.55;;
21705;SDS011;11014;53.076;18.208;2023-01-15T06:55:33;5.05;;;2.88;;
21705;SDS011;11014;53.076;18.208;2023-01-15T06:58:06;2.97;;;2.20;;
21705;SDS011;11014;53.076;18.208;2023-01-15T07:00:53;3.08;;;2.35;;
21705;SDS011;11014;53.076;18.208;2023-01-15T07:03:23;3.45;;;2.88;;
21705;SDS011;11014;53.076;18.208;2023-01-15T07:05:52;3.38;;;2.80;;
21705;SDS011;11014;53.076;18.208;2023-01-15T07:08:20;3.25;;;2.20;;
21705;SDS011;11014;53.076;18.208;2023-01-15T07:10:49;4.05;;;2.70;;
21705;SDS011;11014;53.076;18.208;2023-01-15T07:13:18;4.35;;;2.90;;
21705;SDS011;11014;53.076;18.208;2023-01-15T07:15:47;3.83;;;3.25;;
21705;SDS011;11014;53.076;18.208;2023-01-15T07:18:15;5.43;;;3.20;;
21705;SDS011;11014;53.076;18.208;2023-01-15T07:20:44;3.65;;;3.00;;
21705;SDS011;11014;53.076;18.208;2023-01-15T07:23:13;4.55;;;2.60;;
21705;SDS011;11014;53.076;18.208;2023-01-15T07:25:43;3.33;;;2.45;;
21705;SDS011;11014;53.076;18.208;2023-01-15T07:28:12;3.03;;;2.38;;
21705;SDS011;11014;53.076;18.208;2023-01-15T07:30:43;3.05;;;2.30;;
21705;SDS011;11014;53.076;18.208;2023-01-15T07:33:11;5.50;;;3.50;;
21705;SDS011;11014;53.076;18.208;2023-01-15T07:35:40;2.45;;;2.15;;
21705;SDS011;11014;53.076;18.208;2023-01-15T07:38:09;4.18;;;3.05;;
21705;SDS011;11014;53.076;18.208;2023-01-15T07:40:37;5.00;;;3.00;;
21705;SDS011;11014;53.076;18.208;2023-01-15T07:43:07;5.32;;;3.40;;
21705;SDS011;11014;53.076;18.208;2023-01-15T07:45:55;3.58;;;2.97;;
21705;SDS011;11014;53.076;18.208;2023-01-15T07:48:45;3.20;;;2.72;;
21705;SDS011;11014;53.076;18.208;2023-01-15T07:51:32;3.78;;;3.30;;
21705;SDS011;11014;53.076;18.208;2023-01-15T07:54:00;3.88;;;3.38;;
21705;SDS011;11014;53.076;18.208;2023-01-15T07:56:28;4.43;;;3.17;;
21705;SDS011;11014;53.076;18.208;2023-01-15T07:58:57;7.45;;;3.67;;
21705;SDS011;11014;53.076;18.208;2023-01-15T08:01:26;4.35;;;3.45;;
21705;SDS011;11014;53.076;18.208;2023-01-15T08:03:54;3.95;;;3.25;;
21705;SDS011;11014;53.076;18.208;2023-01-15T08:06:23;5.13;;;3.58;;
21705;SDS011;11014;53.076;18.208;2023-01-15T08:08:51;4.32;;;3.17;;
21705;SDS011;11014;53.076;18.208;2023-01-15T08:11:20;4.85;;;4.10;;
21705;SDS011;11014;53.076;18.208;2023-01-15T08:14:07;4.03;;;3.28;;
21705;SDS011;11014;53.076;18.208;2023-01-15T08:16:56;5.28;;;3.55;;
21705;SDS011;11014;53.076;18.208;2023-01-15T08:19:25;4.90;;;3.83;;
21705;SDS011;11014;53.076;18.208;2023-01-15T08:22:03;4.82;;;4.28;;
21705;SDS011;11014;53.076;18.208;2023-01-15T08:24:31;4.57;;;4.18;;
21705;SDS011;11014;53.076;18.208;2023-01-15T08:30:59;4.00;;;3.65;;
21705;SDS011;11014;53.076;18.208;2023-01-15T08:35:11;3.90;;;3.17;;
21705;SDS011;11014;53.076;18.208;2023-01-15T08:37:55;5.25;;;4.20;;
21705;SDS011;11014;53.076;18.208;2023-01-15T08:40:26;6.80;;;4.30;;
21705;SDS011;11014;53.076;18.208;2023-01-15T08:43:15;5.90;;;4.80;;
21705;SDS011;11014;53.076;18.208;2023-01-15T08:45:44;8.65;;;5.68;;
21705;SDS011;11014;53.076;18.208;2023-01-15T08:49:09;7.40;;;5.13;;
21705;SDS011;11014;53.076;18.208;2023-01-15T08:55:35;5.57;;;4.18;;
21705;SDS011;11014;53.076;18.208;2023-01-15T08:58:39;8.88;;;5.88;;
21705;SDS011;11014;53.076;18.208;2023-01-15T09:01:19;8.50;;;5.43;;
21705;SDS011;11014;53.076;18.208;2023-01-15T09:03:48;9.45;;;6.32;;
21705;SDS011;11014;53.076;18.208;2023-01-15T09:06:16;7.70;;;5.68;;
21705;SDS011;11014;53.076;18.208;2023-01-15T09:08:45;8.68;;;5.50;;
21705;SDS011;11014;53.076;18.208;2023-01-15T09:11:13;11.57;;;6.47;;
21705;SDS011;11014;53.076;18.208;2023-01-15T09:13:42;13.25;;;7.20;;
21705;SDS011;11014;53.076;18.208;2023-01-15T09:16:13;7.40;;;5.88;;
21705;SDS011;11014;53.076;18.208;2023-01-15T09:18:46;7.93;;;5.53;;
21705;SDS011;11014;53.076;18.208;2023-01-15T09:21:15;9.13;;;6.13;;
21705;SDS011;11014;53.076;18.208;2023-01-15T09:23:49;6.70;;;5.45;;
21705;SDS011;11014;53.076;18.208;2023-01-15T09:26:28;6.95;;;5.80;;
21705;SDS011;11014;53.076;18.208;2023-01-15T09:29:05;7.18;;;5.75;;
21705;SDS011;11014;53.076;18.208;2023-01-15T09:31:37;8.60;;;5.50;;
21705;SDS011;11014;53.076;18.208;2023-01-15T09:34:28;6.82;;;5.70;;
21705;SDS011;11014;53.076;18.208;2023-01-15T09:37:51;6.60;;;5.70;;
21705;SDS011;11014;53.076;18.208;2023-01-15T09:45:44;5.13;;;2.72;;
21705;SDS011;11014;53.076;18.208;2023-01-15T09:55:21;6.90;;;5.32;;
21705;SDS011;11014;53.076;18.208;2023-01-15T09:58:08;4.72;;;3.90;;
21705;SDS011;11014;53.076;18.208;2023-01-15T10:01:09;5.75;;;3.92;;
21705;SDS011;11014;53.076;18.208;2023-01-15T10:04:27;4.07;;;3.13;;
21705;SDS011;11014;53.076;18.208;2023-01-15T10:08:47;4.70;;;3.88;;
21705;SDS011;11014;53.076;18.208;2023-01-15T10:11:38;4.38;;;3.45;;
21705;SDS011;11014;53.076;18.208;2023-01-15T10:21:53;4.32;;;3.92;;
21705;SDS011;11014;53.076;18.208;2023-01-15T10:24:38;5.15;;;3.65;;
21705;SDS011;11014;53.076;18.208;2023-01-15T10:27:22;6.82;;;3.38;;
21705;SDS011;11014;53.076;18.208;2023-01-15T10:33:21;2.05;;;1.63;;
21705;SDS011;11014;53.076;18.208;2023-01-15T10:36:12;1.52;;;0.95;;
21705;SDS011;11014;53.076;18.208;2023-01-15T10:38:59;2.42;;;1.48;;
21705;SDS011;11014;53.076;18.208;2023-01-15T10:45:21;6.80;;;3.30;;
21705;SDS011;11014;53.076;18.208;2023-01-15T11:07:25;28.05;;;13.52;;
21705;SDS011;11014;53.076;18.208;2023-01-15T11:15:17;18.20;;;10.32;;
21705;SDS011;11014;53.076;18.208;2023-01-15T11:18:32;9.48;;;5.07;;
21705;SDS011;11014;53.076;18.208;2023-01-15T11:31:05;3.83;;;2.25;;
21705;SDS011;11014;53.076;18.208;2023-01-15T11:34:53;3.90;;;2.17;;
21705;SDS011;11014;53.076;18.208;2023-01-15T11:50:00;3.25;;;2.22;;
21705;SDS011;11014;53.076;18.208;2023-01-15T12:34:52;5.50;;;2.70;;
21705;SDS011;11014;53.076;18.208;2023-01-15T12:42:12;7.22;;;4.47;;
21705;SDS011;11014;53.076;18.208;2023-01-15T12:46:00;10.18;;;6.28;;
21705;SDS011;11014;53.076;18.208;2023-01-15T13:12:34;2.08;;;1.65;;
21705;SDS011;11014;53.076;18.208;2023-01-15T13:26:27;5.88;;;1.88;;
21705;SDS011;11014;53.076;18.208;2023-01-15T13:37:59;8.38;;;2.42;;
21705;SDS011;11014;53.076;18.208;2023-01-15T13:40:39;7.53;;;2.20;;
21705;SDS011;11014;53.076;18.208;2023-01-15T13:43:33;3.58;;;1.70;;
21705;SDS011;11014;53.076;18.208;2023-01-15T13:46:27;4.10;;;1.63;;
21705;SDS011;11014;53.076;18.208;2023-01-15T13:53:29;6.75;;;3.90;;
21705;SDS011;11014;53.076;18.208;2023-01-15T14:06:55;5.13;;;3.00;;
21705;SDS011;11014;53.076;18.208;2023-01-15T14:18:02;13.93;;;5.43;;
21705;SDS011;11014;53.076;18.208;2023-01-15T14:24:07;7.38;;;4.65;;
21705;SDS011;11014;53.076;18.208;2023-01-15T14:27:04;13.68;;;8.52;;
21705;SDS011;11014;53.076;18.208;2023-01-15T14:36:24;9.23;;;4.75;;
21705;SDS011;11014;53.076;18.208;2023-01-15T14:50:37;6.40;;;2.40;;
21705;SDS011;11014;53.076;18.208;2023-01-15T14:53:51;6.47;;;2.90;;
21705;SDS011;11014;53.076;18.208;2023-01-15T15:02:33;10.02;;;3.90;;
21705;SDS011;11014;53.076;18.208;2023-01-15T15:08:31;10.60;;;5.18;;
21705;SDS011;11014;53.076;18.208;2023-01-15T15:17:03;13.05;;;4.85;;
21705;SDS011;11014;53.076;18.208;2023-01-15T15:20:23;12.40;;;4.63;;
21705;SDS011;11014;53.076;18.208;2023-01-15T15:26:39;16.27;;;5.18;;
21705;SDS011;11014;53.076;18.208;2023-01-15T15:29:28;10.75;;;3.80;;
21705;SDS011;11014;53.076;18.208;2023-01-15T15:32:11;11.02;;;4.60;;
21705;SDS011;11014;53.076;18.208;2023-01-15T15:51:47;10.38;;;4.68;;
21705;SDS011;11014;53.076;18.208;2023-01-15T15:57:16;8.93;;;5.00;;
21705;SDS011;11014;53.076;18.208;2023-01-15T16:06:22;7.60;;;3.85;;
21705;SDS011;11014;53.076;18.208;2023-01-15T16:09:10;9.02;;;4.88;;
21705;SDS011;11014;53.076;18.208;2023-01-15T16:14:10;13.65;;;5.72;;
21705;SDS011;11014;53.076;18.208;2023-01-15T16:16:44;11.05;;;5.97;;
21705;SDS011;11014;53.076;18.208;2023-01-15T16:19:16;7.90;;;4.80;;
21705;SDS011;11014;53.076;18.208;2023-01-15T16:21:55;14.38;;;6.75;;
21705;SDS011;11014;53.076;18.208;2023-01-15T16:24:55;9.07;;;5.15;;
21705;SDS011;11014;53.076;18.208;2023-01-15T16:27:31;11.77;;;5.80;;
21705;SDS011;11014;53.076;18.208;2023-01-15T16:30:03;8.48;;;4.60;;
21705;SDS011;11014;53.076;18.208;2023-01-15T16:32:45;11.27;;;5.30;;
21705;SDS011;11014;53.076;18.208;2023-01-15T16:35:22;10.27;;;4.97;;
21705;SDS011;11014;53.076;18.208;2023-01-15T16:38:01;9.27;;;5.07;;
21705;SDS011;11014;53.076;18.208;2023-01-15T16:40:34;5.35;;;3.22;;
21705;SDS011;11014;53.076;18.208;2023-01-15T16:43:12;9.50;;;5.28;;
21705;SDS011;11014;53.076;18.208;2023-01-15T16:48:28;7.70;;;4.22;;
21705;SDS011;11014;53.076;18.208;2023-01-15T16:51:39;10.05;;;4.43;;
21705;SDS011;11014;53.076;18.208;2023-01-15T16:57:27;8.52;;;5.43;;
21705;SDS011;11014;53.076;18.208;2023-01-15T17:04:43;7.60;;;4.28;;
21705;SDS011;11014;53.076;18.208;2023-01-15T17:07:42;10.50;;;5.25;;
21705;SDS011;11014;53.076;18.208;2023-01-15T17:10:30;13.18;;;7.97;;
21705;SDS011;11014;53.076;18.208;2023-01-15T17:12:59;9.43;;;6.15;;
21705;SDS011;11014;53.076;18.208;2023-01-15T17:15:39;11.07;;;6.32;;
21705;SDS011;11014;53.076;18.208;2023-01-15T17:18:22;10.43;;;5.43;;
21705;SDS011;11014;53.076;18.208;2023-01-15T17:21:01;8.00;;;4.82;;
21705;SDS011;11014;53.076;18.208;2023-01-15T17:23:38;6.45;;;3.47;;
21705;SDS011;11014;53.076;18.208;2023-01-15T17:26:47;7.97;;;4.40;;
21705;SDS011;11014;53.076;18.208;2023-01-15T17:34:13;8.43;;;5.35;;
21705;SDS011;11014;53.076;18.208;2023-01-15T17:36:55;7.22;;;4.45;;
21705;SDS011;11014;53.076;18.208;2023-01-15T17:43:25;7.88;;;4.18;;
21705;SDS011;11014;53.076;18.208;2023-01-15T17:46:30;6.95;;;4.22;;
21705;SDS011;11014;53.076;18.208;2023-01-15T17:58:30;8.60;;;4.25;;
21705;SDS011;11014;53.076;18.208;2023-01-15T18:02:11;6.70;;;3.92;;
21705;SDS011;11014;53.076;18.208;2023-01-15T18:05:52;7.05;;;3.95;;
21705;SDS011;11014;53.076;18.208;2023-01-15T18:08:27;8.77;;;4.40;;
21705;SDS011;11014;53.076;18.208;2023-01-15T18:14:13;9.50;;;5.10;;
21705;SDS011;11014;53.076;18.208;2023-01-15T18:16:45;8.60;;;4.40;;
21705;SDS011;11014;53.076;18.208;2023-01-15T18:22:26;7.65;;;4.65;;
21705;SDS011;11014;53.076;18.208;2023-01-15T18:26:23;9.05;;;4.13;;
21705;SDS011;11014;53.076;18.208;2023-01-15T18:29:01;9.20;;;4.93;;
21705;SDS011;11014;53.076;18.208;2023-01-15T18:31:53;9.32;;;4.45;;
21705;SDS011;11014;53.076;18.208;2023-01-15T18:34:25;6.65;;;4.13;;
21705;SDS011;11014;53.076;18.208;2023-01-15T18:36:57;8.13;;;4.78;;
21705;SDS011;11014;53.076;18.208;2023-01-15T18:39:54;8.63;;;5.10;;
21705;SDS011;11014;53.076;18.208;2023-01-15T18:42:25;4.95;;;3.17;;
21705;SDS011;11014;53.076;18.208;2023-01-15T18:45:28;6.78;;;4.40;;
21705;SDS011;11014;53.076;18.208;2023-01-15T18:48:24;10.68;;;5.82;;
21705;SDS011;11014;53.076;18.208;2023-01-15T18:50:56;5.43;;;3.28;;
21705;SDS011;11014;53.076;18.208;2023-01-15T18:53:42;6.07;;;4.32;;
21705;SDS011;11014;53.076;18.208;2023-01-15T18:56:23;4.82;;;3.38;;
21705;SDS011;11014;53.076;18.208;2023-01-15T18:59:29;9.90;;;5.93;;
21705;SDS011;11014;53.076;18.208;2023-01-15T19:02:19;6.10;;;3.33;;
21705;SDS011;11014;53.076;18.208;2023-01-15T19:05:19;8.40;;;4.10;;
21705;SDS011;11014;53.076;18.208;2023-01-15T19:07:51;6.45;;;4.22;;
21705;SDS011;11014;53.076;18.208;2023-01-15T19:17:55;8.32;;;4.85;;
21705;SDS011;11014;53.076;18.208;2023-01-15T19:20:57;6.60;;;3.53;;
21705;SDS011;11014;53.076;18.208;2023-01-15T19:27:21;10.82;;;5.60;;
21705;SDS011;11014;53.076;18.208;2023-01-15T19:31:18;7.30;;;4.03;;
21705;SDS011;11014;53.076;18.208;2023-01-15T19:34:09;5.25;;;2.95;;
21705;SDS011;11014;53.076;18.208;2023-01-15T19:37:41;9.80;;;4.35;;
21705;SDS011;11014;53.076;18.208;2023-01-15T19:48:39;5.00;;;2.78;;
21705;SDS011;11014;53.076;18.208;2023-01-15T19:51:52;6.38;;;3.70;;
21705;SDS011;11014;53.076;18.208;2023-01-15T19:55:30;6.13;;;3.72;;
21705;SDS011;11014;53.076;18.208;2023-01-15T19:58:18;7.07;;;3.70;;
21705;SDS011;11014;53.076;18.208;2023-01-15T20:09:27;7.30;;;3.88;;
21705;SDS011;11014;53.076;18.208;2023-01-15T20:15:29;9.27;;;3.83;;
21705;SDS011;11014;53.076;18.208;2023-01-15T20:18:02;5.05;;;2.60;;
21705;SDS011;11014;53.076;18.208;2023-01-15T20:20:37;4.28;;;2.33;;
21705;SDS011;11014;53.076;18.208;2023-01-15T20:23:19;5.18;;;2.80;;
21705;SDS011;11014;53.076;18.208;2023-01-15T20:37:03;6.45;;;3.20;;
21705;SDS011;11014;53.076;18.208;2023-01-15T20:39:49;6.72;;;3.28;;
21705;SDS011;11014;53.076;18.208;2023-01-15T20:42:30;6.97;;;3.50;;
21705;SDS011;11014;53.076;18.208;2023-01-15T20:45:29;4.72;;;2.60;;
21705;SDS011;11014;53.076;18.208;2023-01-15T20:52:26;5.65;;;2.70;;
21705;SDS011;11014;53.076;18.208;2023-01-15T20:58:53;7.28;;;3.58;;
21705;SDS011;11014;53.076;18.208;2023-01-15T21:01:24;7.35;;;2.90;;
21705;SDS011;11014;53.076;18.208;2023-01-15T21:07:02;5.35;;;2.85;;
21705;SDS011;11014;53.076;18.208;2023-01-15T21:09:31;4.40;;;2.10;;
21705;SDS011;11014;53.076;18.208;2023-01-15T21:12:14;5.47;;;2.50;;
21705;SDS011;11014;53.076;18.208;2023-01-15T21:14:53;3.40;;;2.03;;
21705;SDS011;11014;53.076;18.208;2023-01-15T21:17:26;7.28;;;3.42;;
21705;SDS011;11014;53.076;18.208;2023-01-15T21:20:12;6.80;;;2.78;;
21705;SDS011;11014;53.076;18.208;2023-01-15T21:22:43;7.22;;;2.92;;
21705;SDS011;11014;53.076;18.208;2023-01-15T21:28:10;3.90;;;2.30;;
21705;SDS011;11014;53.076;18.208;2023-01-15T21:40:13;5.38;;;2.60;;
21705;SDS011;11014;53.076;18.208;2023-01-15T21:43:08;4.93;;;2.20;;
21705;SDS011;11014;53.076;18.208;2023-01-15T21:55:22;3.95;;;1.85;;
21705;SDS011;11014;53.076;18.208;2023-01-15T22:00:53;4.50;;;2.05;;
21705;SDS011;11014;53.076;18.208;2023-01-15T22:03:27;5.30;;;2.30;;
21705;SDS011;11014;53.076;18.208;2023-01-15T22:06:02;3.80;;;1.98;;
21705;SDS011;11014;53.076;18.208;2023-01-15T22:11:28;5.80;;;2.15;;
21705;SDS011;11014;53.076;18.208;2023-01-15T22:14:19;4.40;;;1.73;;
21705;SDS011;11014;53.076;18.208;2023-01-15T22:16:55;5.10;;;2.13;;
21705;SDS011;11014;53.076;18.208;2023-01-15T22:19:27;4.53;;;1.52;;
21705;SDS011;11014;53.076;18.208;2023-01-15T22:22:05;6.47;;;2.25;;
21705;SDS011;11014;53.076;18.208;2023-01-15T22:24:37;4.32;;;1.77;;
21705;SDS011;11014;53.076;18.208;2023-01-15T22:27:07;4.22;;;1.85;;
21705;SDS011;11014;53.076;18.208;2023-01-15T22:29:45;3.65;;;2.00;;
21705;SDS011;11014;53.076;18.208;2023-01-15T22:32:34;6.22;;;1.83;;
21705;SDS011;11014;53.076;18.208;2023-01-15T22:35:04;2.92;;;1.67;;